createdAt,value
2018-08-19T00:00:43.528Z,92.58
2018-08-19T00:03:12.609Z,92.95
2018-08-19T00:05:41.357Z,92.89
2018-08-19T00:08:10.890Z,93.16
2018-08-19T00:11:15.473Z,93.53
2018-08-19T00:13:44.504Z,93.45
2018-08-19T00:16:13.529Z,94.08
2018-08-19T00:18:42.359Z,94.02
2018-08-19T00:21:12.229Z,94.37
2018-08-19T00:23:45.949Z,94.45
2018-08-19T00:26:16.028Z,94.32
2018-08-19T00:28:44.673Z,94.72
2018-08-19T00:31:13.834Z,94.89
2018-08-19T00:33:42.850Z,94.80
2018-08-19T00:36:25.193Z,94.99
2018-08-19T00:38:55.156Z,95.61
2018-08-19T00:41:23.808Z,95.97
2018-08-19T00:43:53.985Z,96.19
2018-08-19T00:46:30.333Z,95.65
2018-08-19T00:48:59.918Z,95.23
2018-08-19T00:51:29.136Z,95.36
2018-08-19T00:53:58.289Z,95.29
2018-08-19T00:56:27.294Z,95.51
2018-08-19T00:58:56.800Z,95.34
2018-08-19T01:01:36.666Z,95.65
2018-08-19T01:04:08.478Z,95.38
2018-08-19T01:07:08.904Z,94.87
2018-08-19T01:09:37.528Z,95.62
2018-08-19T01:12:06.761Z,95.43
2018-08-19T01:14:36.126Z,95.25
2018-08-19T01:17:06.439Z,95.42
2018-08-19T01:19:35.446Z,95.57
2018-08-19T01:22:04.299Z,96.05
2018-08-19T01:24:34.170Z,96.13
2018-08-19T01:27:03.751Z,96.10
2018-08-19T01:29:49.896Z,96.55
2018-08-19T01:32:19.786Z,97.00
2018-08-19T01:34:48.391Z,96.79
2018-08-19T01:37:17.155Z,96.52
2018-08-19T01:39:47.405Z,96.08
2018-08-19T01:42:15.989Z,96.28
2018-08-19T01:44:44.773Z,96.51
2018-08-19T01:47:13.505Z,96.94
2018-08-19T01:49:42.351Z,96.97
2018-08-19T01:52:12.439Z,97.11
2018-08-19T01:54:41.080Z,97.14
2018-08-19T01:57:10.468Z,96.81
2018-08-19T01:59:39.053Z,96.97
2018-08-19T02:02:08.305Z,96.61
2018-08-19T02:04:46.114Z,96.56
2018-08-19T02:07:16.850Z,97.03
2018-08-19T02:09:59.830Z,96.71
2018-08-19T02:12:36.236Z,97.23
2018-08-19T02:15:06.109Z,97.17
2018-08-19T02:17:43.054Z,97.26
2018-08-19T02:20:12.430Z,97.18
2018-08-19T02:22:45.631Z,97.30
2018-08-19T02:25:14.768Z,96.61
2018-08-19T02:27:44.044Z,96.73
2018-08-19T02:30:14.264Z,96.94
2018-08-19T02:32:42.956Z,97.03
2018-08-19T02:35:12.572Z,97.24
2018-08-19T02:37:41.839Z,97.58
2018-08-19T02:40:13.982Z,97.60
2018-08-19T02:42:43.021Z,97.41
2018-08-19T02:45:11.820Z,97.67
2018-08-19T02:47:40.515Z,97.71
2018-08-19T02:50:09.261Z,98.14
2018-08-19T02:52:38.176Z,98.15
2018-08-19T02:55:08.285Z,98.29
2018-08-19T02:57:39.403Z,98.26
2018-08-19T03:00:09.354Z,98.68
2018-08-19T03:02:39.884Z,99.07
2018-08-19T03:05:14.315Z,99.12
2018-08-19T03:07:43.840Z,99.15
2018-08-19T03:10:14.466Z,99.32
2018-08-19T03:12:43.643Z,99.49
2018-08-19T03:15:14.323Z,99.18
2018-08-19T03:17:44.559Z,99.24
2018-08-19T03:20:14.114Z,99.29
2018-08-19T03:22:45.126Z,99.82
2018-08-19T03:25:13.680Z,100.00
2018-08-19T03:27:42.235Z,99.76
2018-08-19T03:30:13.883Z,99.74
2018-08-19T03:32:49.842Z,99.92
2018-08-19T03:35:19.920Z,99.75
2018-08-19T03:37:51.683Z,99.76
2018-08-19T03:40:20.867Z,99.42
2018-08-19T03:42:49.577Z,99.57
2018-08-19T03:45:20.202Z,100.00
2018-08-19T03:47:50.330Z,99.94
2018-08-19T03:50:20.343Z,100.00
2018-08-19T03:52:49.235Z,100.00
2018-08-19T03:55:24.021Z,100.00
2018-08-19T03:57:53.370Z,99.53
2018-08-19T04:00:22.296Z,99.80
2018-08-19T04:02:51.077Z,99.73
2018-08-19T04:05:53.200Z,99.93
2018-08-19T04:08:22.102Z,100.00
2018-08-19T04:10:52.290Z,99.55
2018-08-19T04:13:30.824Z,100.00
2018-08-19T04:16:03.524Z,100.00
2018-08-19T04:18:38.011Z,100.00
2018-08-19T04:21:09.599Z,100.00
2018-08-19T04:23:41.042Z,100.00
2018-08-19T04:26:09.669Z,100.00
2018-08-19T04:28:40.374Z,100.00
2018-08-19T04:31:24.955Z,100.00
2018-08-19T04:33:54.531Z,100.00
2018-08-19T04:36:24.892Z,100.00
2018-08-19T04:38:53.664Z,100.00
2018-08-19T04:41:22.527Z,100.00
2018-08-19T04:43:51.259Z,100.00
2018-08-19T04:46:22.912Z,100.00
2018-08-19T04:48:52.523Z,100.00
2018-08-19T04:51:21.346Z,100.00
2018-08-19T04:53:49.995Z,99.69
2018-08-19T04:56:19.774Z,99.62
2018-08-19T04:58:48.509Z,99.18
2018-08-19T05:01:17.887Z,98.75
2018-08-19T05:03:47.504Z,98.40
2018-08-19T05:06:16.755Z,97.52
2018-08-19T05:08:47.906Z,97.04
2018-08-19T05:11:16.567Z,96.37
2018-08-19T05:13:45.300Z,95.11
2018-08-19T05:16:13.905Z,94.05
2018-08-19T05:18:51.350Z,93.31
2018-08-19T05:21:20.587Z,92.96
2018-08-19T05:23:49.406Z,92.10
2018-08-19T05:26:17.996Z,90.67
2018-08-19T05:28:59.470Z,89.84
2018-08-19T05:31:28.153Z,90.13
2018-08-19T05:33:57.537Z,90.29
2018-08-19T05:36:31.969Z,90.29
2018-08-19T05:39:02.309Z,90.16
2018-08-19T05:41:31.670Z,90.37
2018-08-19T05:44:00.366Z,90.22
2018-08-19T05:46:29.946Z,89.39
2018-08-19T05:49:04.396Z,88.60
2018-08-19T05:51:33.269Z,87.88
2018-08-19T05:54:02.001Z,86.96
2018-08-19T05:56:30.871Z,86.04
2018-08-19T05:59:01.169Z,84.49
2018-08-19T06:01:32.025Z,83.59
2018-08-19T06:04:01.409Z,81.82
2018-08-19T06:06:30.687Z,79.93
2018-08-19T06:08:59.556Z,78.79
2018-08-19T06:11:29.159Z,77.63
2018-08-19T06:13:57.795Z,77.69
2018-08-19T06:16:26.489Z,75.99
2018-08-19T06:18:55.917Z,75.30
2018-08-19T06:21:24.581Z,74.11
2018-08-19T06:23:53.311Z,73.07
2018-08-19T06:26:26.826Z,72.81
2018-08-19T06:28:55.580Z,71.51
2018-08-19T06:31:24.756Z,70.58
2018-08-19T06:33:54.035Z,70.36
2018-08-19T06:36:23.382Z,71.64
2018-08-19T06:38:52.407Z,72.96
2018-08-19T06:41:21.066Z,75.09
2018-08-19T06:43:49.908Z,77.02
2018-08-19T06:46:18.742Z,77.28
2018-08-19T06:48:47.981Z,78.41
2018-08-19T06:51:16.711Z,78.37
2018-08-19T06:53:45.726Z,79.98
2018-08-19T06:56:15.182Z,79.67
2018-08-19T06:58:44.195Z,79.15
2018-08-19T07:01:14.013Z,78.44
2018-08-19T07:03:46.910Z,78.63
2018-08-19T07:06:15.673Z,78.00
2018-08-19T07:08:44.651Z,76.66
2018-08-19T07:11:13.307Z,72.37
2018-08-19T07:13:42.142Z,68.72
2018-08-19T07:16:11.756Z,65.21
2018-08-19T07:18:40.649Z,59.89
2018-08-19T07:21:09.209Z,56.72
2018-08-19T07:23:38.472Z,54.63
2018-08-19T07:26:07.612Z,54.23
2018-08-19T07:28:36.777Z,52.41
2018-08-19T07:31:06.016Z,51.91
2018-08-19T07:33:35.867Z,51.13
2018-08-19T07:36:05.491Z,50.71
2018-08-19T07:38:34.093Z,50.76
2018-08-19T07:41:03.059Z,52.59
2018-08-19T07:43:33.549Z,51.31
2018-08-19T07:46:02.817Z,48.09
2018-08-19T07:48:31.826Z,46.63
2018-08-19T07:51:00.583Z,47.16
2018-08-19T07:53:29.205Z,47.88
2018-08-19T07:55:58.422Z,49.75
2018-08-19T07:58:42.364Z,47.58
2018-08-19T08:01:11.913Z,46.79
2018-08-19T08:03:40.669Z,46.75
2018-08-19T08:06:09.768Z,48.46
2018-08-19T08:08:38.620Z,45.64
2018-08-19T08:11:07.287Z,43.44
2018-08-19T08:13:36.627Z,42.64
2018-08-19T08:16:06.342Z,39.52
2018-08-19T08:18:34.978Z,37.50
2018-08-19T08:21:12.618Z,34.84
2018-08-19T08:23:42.088Z,32.75
2018-08-19T08:26:10.698Z,32.78
2018-08-19T08:28:39.623Z,32.93
2018-08-19T08:31:10.179Z,33.03
2018-08-19T08:33:40.386Z,33.17
2018-08-19T08:36:10.885Z,32.22
2018-08-19T08:38:41.642Z,31.43
2018-08-19T08:41:10.586Z,30.47
2018-08-19T08:43:39.564Z,28.33
2018-08-19T08:46:08.230Z,28.23
2018-08-19T08:48:37.324Z,26.16
2018-08-19T08:51:06.095Z,24.71
2018-08-19T08:53:39.921Z,24.37
2018-08-19T08:56:08.833Z,23.68
2018-08-19T08:58:38.342Z,22.78
2018-08-19T09:01:08.373Z,22.33
2018-08-19T09:03:37.987Z,22.11
2018-08-19T09:06:15.661Z,22.49
2018-08-19T09:08:44.807Z,26.12
2018-08-19T09:11:15.083Z,28.64
2018-08-19T09:13:44.584Z,30.65
2018-08-19T09:16:13.304Z,32.34
2018-08-19T09:18:42.254Z,32.26
2018-08-19T09:21:12.231Z,30.33
2018-08-19T09:23:40.987Z,28.42
2018-08-19T09:26:10.422Z,27.01
2018-08-19T09:28:40.079Z,25.06
2018-08-19T09:31:09.763Z,22.18
2018-08-19T09:33:38.396Z,22.20
2018-08-19T09:36:07.088Z,21.18
2018-08-19T09:38:36.663Z,21.16
2018-08-19T09:41:05.557Z,21.08
2018-08-19T09:43:35.007Z,20.49
2018-08-19T09:46:03.649Z,19.98
2018-08-19T09:48:32.292Z,19.95
2018-08-19T09:51:06.329Z,20.61
2018-08-19T09:53:36.544Z,20.27
2018-08-19T09:56:09.942Z,19.09
2018-08-19T09:58:39.217Z,18.37
2018-08-19T10:01:14.951Z,19.64
2018-08-19T10:03:45.143Z,20.01
2018-08-19T10:06:14.382Z,18.48
2018-08-19T10:08:43.219Z,17.70
2018-08-19T10:11:12.110Z,17.54
2018-08-19T10:13:40.947Z,16.84
2018-08-19T10:16:09.704Z,18.73
2018-08-19T10:18:38.503Z,17.09
2018-08-19T10:21:14.198Z,17.01
2018-08-19T10:23:44.092Z,17.16
2018-08-19T10:26:14.217Z,16.59
2018-08-19T10:28:42.976Z,16.63
2018-08-19T10:31:17.276Z,16.87
2018-08-19T10:33:45.936Z,15.63
2018-08-19T10:36:14.623Z,15.78
2018-08-19T10:38:43.278Z,15.30
2018-08-19T10:41:12.344Z,15.15
2018-08-19T10:43:41.344Z,15.01
2018-08-19T10:46:10.137Z,15.80
2018-08-19T10:48:39.631Z,15.31
2018-08-19T10:51:08.337Z,14.61
2018-08-19T10:53:37.978Z,14.73
2018-08-19T10:56:06.607Z,14.16
2018-08-19T10:58:35.693Z,14.25
2018-08-19T11:01:03.542Z,14.28
2018-08-19T11:03:33.052Z,14.12
2018-08-19T11:06:02.897Z,14.58
2018-08-19T11:08:31.678Z,15.05
2018-08-19T11:11:00.983Z,14.60
2018-08-19T11:13:30.913Z,13.88
2018-08-19T11:16:01.273Z,14.12
2018-08-19T11:18:35.429Z,14.27
2018-08-19T11:21:10.308Z,13.95
2018-08-19T11:23:41.109Z,13.01
2018-08-19T11:26:11.064Z,13.33
2018-08-19T11:28:43.145Z,13.24
2018-08-19T11:31:16.681Z,12.92
2018-08-19T11:33:45.530Z,12.96
2018-08-19T11:36:13.972Z,13.42
2018-08-19T11:38:46.741Z,13.61
2018-08-19T11:41:16.105Z,13.38
2018-08-19T11:43:46.224Z,12.92
2018-08-19T11:46:15.431Z,13.57
2018-08-19T11:48:45.129Z,13.18
2018-08-19T11:51:13.863Z,13.32
2018-08-19T11:53:41.696Z,13.50
2018-08-19T11:56:10.319Z,13.23
2018-08-19T11:58:40.668Z,13.31
2018-08-19T12:01:13.032Z,13.10
2018-08-19T12:03:56.479Z,12.99
2018-08-19T12:06:27.410Z,12.98
2018-08-19T12:08:58.113Z,12.93
2018-08-19T12:11:29.653Z,12.65
2018-08-19T12:13:57.398Z,13.26
2018-08-19T12:16:27.517Z,13.43
2018-08-19T12:19:00.009Z,14.86
2018-08-19T12:21:30.918Z,17.11
2018-08-19T12:24:14.685Z,19.11
2018-08-19T12:26:43.968Z,20.04
2018-08-19T12:29:12.890Z,20.97
2018-08-19T12:31:42.072Z,21.83
2018-08-19T12:34:11.626Z,22.49
2018-08-19T12:36:40.658Z,22.45
2018-08-19T12:39:10.755Z,22.84
2018-08-19T12:41:45.520Z,23.47
2018-08-19T12:44:14.445Z,23.80
2018-08-19T12:46:58.985Z,24.87
2018-08-19T12:49:28.906Z,24.91
2018-08-19T12:51:58.795Z,24.25
2018-08-19T12:54:27.854Z,24.19
2018-08-19T12:56:58.043Z,24.25
2018-08-19T12:59:27.023Z,25.29
2018-08-19T13:01:55.867Z,25.81
2018-08-19T13:04:24.799Z,26.08
2018-08-19T13:07:15.770Z,26.58
2018-08-19T13:09:49.764Z,26.74
2018-08-19T13:12:19.137Z,28.07
2018-08-19T13:14:48.537Z,27.02
2018-08-19T13:17:17.290Z,27.65
2018-08-19T13:19:52.842Z,27.95
2018-08-19T13:22:22.033Z,27.82
2018-08-19T13:24:51.732Z,27.73
2018-08-19T13:27:21.484Z,27.72
2018-08-19T13:29:50.299Z,26.99
2018-08-19T13:32:21.513Z,28.17
2018-08-19T13:34:50.920Z,28.19
2018-08-19T13:37:20.758Z,28.15
2018-08-19T13:39:50.399Z,28.59
2018-08-19T13:42:19.379Z,28.30
2018-08-19T13:44:48.465Z,28.49
2018-08-19T13:47:17.587Z,28.92
2018-08-19T13:49:47.510Z,27.51
2018-08-19T13:52:16.299Z,28.62
2018-08-19T13:55:03.013Z,29.09
2018-08-19T13:57:32.733Z,28.67
2018-08-19T14:00:01.676Z,28.71
2018-08-19T14:02:30.388Z,29.42
2018-08-19T14:04:59.945Z,29.28
2018-08-19T14:07:30.204Z,29.33
2018-08-19T14:09:59.389Z,29.54
2018-08-19T14:12:28.239Z,29.89
2018-08-19T14:14:57.873Z,29.58
2018-08-19T14:17:26.743Z,29.29
2018-08-19T14:19:55.524Z,29.57
2018-08-19T14:22:24.383Z,30.25
2018-08-19T14:24:53.319Z,28.91
2018-08-19T14:27:23.043Z,29.17
2018-08-19T14:29:52.163Z,31.15
2018-08-19T14:32:28.889Z,31.19
2018-08-19T14:34:59.354Z,30.49
2018-08-19T14:37:29.614Z,31.77
2018-08-19T14:39:59.429Z,30.76
2018-08-19T14:42:29.043Z,30.83
2018-08-19T14:44:58.937Z,30.96
2018-08-19T14:47:28.439Z,30.21
2018-08-19T14:49:58.639Z,30.80
2018-08-19T14:52:28.613Z,30.62
2018-08-19T14:54:57.763Z,31.34
2018-08-19T14:57:27.441Z,31.88
2018-08-19T14:59:57.573Z,31.80
2018-08-19T15:02:26.571Z,33.48
2018-08-19T15:04:55.579Z,33.81
2018-08-19T15:07:24.304Z,33.21
2018-08-19T15:09:54.906Z,32.08
2018-08-19T15:12:26.463Z,32.03
2018-08-19T15:15:00.994Z,32.03
2018-08-19T15:17:30.654Z,33.40
2018-08-19T15:19:59.532Z,34.42
2018-08-19T15:22:29.071Z,33.05
2018-08-19T15:24:57.954Z,32.58
2018-08-19T15:27:27.463Z,33.05
2018-08-19T15:29:57.020Z,33.28
2018-08-19T15:32:26.255Z,33.28
2018-08-19T15:34:56.359Z,32.72
2018-08-19T15:37:25.284Z,32.97
2018-08-19T15:39:54.190Z,33.55
2018-08-19T15:42:22.928Z,33.05
2018-08-19T15:44:51.603Z,34.22
2018-08-19T15:47:20.956Z,33.44
2018-08-19T15:49:59.445Z,34.01
2018-08-19T15:52:28.710Z,33.85
2018-08-19T15:55:00.484Z,33.67
2018-08-19T15:57:29.758Z,34.06
2018-08-19T15:59:58.624Z,33.99
2018-08-19T16:02:28.216Z,33.96
2018-08-19T16:04:58.288Z,34.42
2018-08-19T16:07:27.694Z,34.08
2018-08-19T16:09:56.529Z,34.47
2018-08-19T16:12:26.357Z,35.14
2018-08-19T16:14:57.327Z,35.42
2018-08-19T16:17:26.502Z,37.01
2018-08-19T16:19:55.360Z,37.14
2018-08-19T16:22:24.240Z,36.95
2018-08-19T16:24:53.300Z,37.40
2018-08-19T16:27:22.086Z,36.54
2018-08-19T16:29:50.703Z,37.41
2018-08-19T16:32:19.509Z,38.14
2018-08-19T16:34:48.286Z,36.64
2018-08-19T16:37:17.136Z,36.64
2018-08-19T16:39:45.756Z,37.08
2018-08-19T16:42:14.732Z,37.96
2018-08-19T16:44:44.037Z,41.26
2018-08-19T16:47:13.669Z,44.25
2018-08-19T16:49:42.410Z,44.88
2018-08-19T16:52:11.296Z,45.00
2018-08-19T16:54:40.088Z,42.45
2018-08-19T16:57:09.609Z,43.97
2018-08-19T16:59:38.391Z,45.54
2018-08-19T17:02:07.801Z,43.88
2018-08-19T17:04:38.490Z,44.97
2018-08-19T17:07:10.274Z,44.68
2018-08-19T17:09:39.465Z,46.08
2018-08-19T17:12:08.064Z,46.47
2018-08-19T17:14:37.782Z,46.53
2018-08-19T17:17:06.915Z,46.60
2018-08-19T17:19:35.990Z,45.60
2018-08-19T17:22:08.796Z,45.79
2018-08-19T17:24:37.529Z,44.65
2018-08-19T17:27:11.780Z,46.04
2018-08-19T17:29:41.665Z,46.94
2018-08-19T17:32:11.139Z,46.05
2018-08-19T17:34:40.975Z,45.62
2018-08-19T17:37:11.275Z,45.45
2018-08-19T17:39:40.765Z,45.32
2018-08-19T17:42:09.741Z,44.25
2018-08-19T17:44:40.050Z,43.87
2018-08-19T17:47:09.199Z,43.08
2018-08-19T17:49:38.484Z,43.17
2018-08-19T17:52:07.793Z,43.39
2018-08-19T17:54:36.865Z,44.24
2018-08-19T17:57:06.126Z,44.27
2018-08-19T17:59:35.054Z,43.23
2018-08-19T18:02:03.785Z,43.24
2018-08-19T18:04:38.644Z,42.32
2018-08-19T18:07:11.685Z,41.85
2018-08-19T18:09:44.601Z,43.13
2018-08-19T18:12:13.311Z,43.66
2018-08-19T18:14:42.336Z,44.20
2018-08-19T18:17:11.746Z,45.60
2018-08-19T18:19:41.376Z,47.29
2018-08-19T18:22:10.094Z,49.84
2018-08-19T18:24:40.170Z,50.63
2018-08-19T18:27:09.350Z,51.45
2018-08-19T18:29:44.468Z,51.82
2018-08-19T18:32:13.148Z,54.08
2018-08-19T18:34:42.094Z,53.87
2018-08-19T18:37:10.903Z,54.68
2018-08-19T18:39:43.153Z,55.14
2018-08-19T18:42:14.987Z,56.07
2018-08-19T18:44:44.082Z,57.33
2018-08-19T18:47:13.432Z,57.98
2018-08-19T18:49:43.096Z,58.53
2018-08-19T18:52:17.877Z,59.18
2018-08-19T18:54:47.506Z,58.82
2018-08-19T18:57:16.715Z,59.69
2018-08-19T18:59:45.555Z,59.95
2018-08-19T19:02:15.267Z,59.95
2018-08-19T19:04:44.625Z,60.78
2018-08-19T19:07:13.721Z,61.09
2018-08-19T19:09:49.795Z,61.82
2018-08-19T19:12:22.032Z,62.50
2018-08-19T19:14:51.281Z,61.86
2018-08-19T19:17:20.451Z,61.69
2018-08-19T19:19:50.520Z,61.78
2018-08-19T19:22:20.685Z,62.36
2018-08-19T19:24:52.879Z,61.55
2018-08-19T19:27:22.304Z,61.83
2018-08-19T19:29:56.911Z,61.51
2018-08-19T19:32:26.633Z,61.54
2018-08-19T19:34:56.349Z,61.61
2018-08-19T19:37:26.656Z,61.52
2018-08-19T19:40:00.939Z,61.43
2018-08-19T19:42:30.585Z,62.85
2018-08-19T19:45:00.190Z,62.37
2018-08-19T19:47:29.552Z,62.58
2018-08-19T19:49:59.674Z,63.09
2018-08-19T19:52:29.342Z,63.29
2018-08-19T19:54:58.296Z,63.28
2018-08-19T19:57:27.360Z,63.81
2018-08-19T19:59:56.571Z,63.95
2018-08-19T20:02:31.300Z,63.62
2018-08-19T20:05:01.282Z,64.43
2018-08-19T20:07:30.976Z,64.61
2018-08-19T20:10:00.911Z,64.59
2018-08-19T20:12:30.424Z,64.49
2018-08-19T20:15:01.527Z,65.26
2018-08-19T20:17:31.080Z,65.52
2018-08-19T20:20:00.168Z,66.17
2018-08-19T20:22:29.332Z,66.67
2018-08-19T20:24:58.066Z,66.62
2018-08-19T20:27:26.820Z,66.98
2018-08-19T20:29:55.795Z,67.52
2018-08-19T20:32:25.194Z,67.49
2018-08-19T20:34:54.414Z,68.28
2018-08-19T20:37:25.229Z,68.53
2018-08-19T20:39:54.726Z,69.07
2018-08-19T20:42:24.052Z,69.52
2018-08-19T20:44:54.082Z,69.99
2018-08-19T20:47:23.979Z,69.92
2018-08-19T20:49:52.640Z,69.73
2018-08-19T20:52:45.263Z,69.39
2018-08-19T20:55:14.925Z,69.45
2018-08-19T20:57:45.222Z,70.23
2018-08-19T21:00:14.203Z,69.71
2018-08-19T21:02:43.229Z,69.96
2018-08-19T21:05:11.950Z,70.02
2018-08-19T21:07:41.926Z,70.67
2018-08-19T21:10:10.700Z,70.48
2018-08-19T21:12:40.188Z,70.82
2018-08-19T21:15:09.550Z,70.84
2018-08-19T21:17:38.780Z,71.64
2018-08-19T21:20:07.673Z,71.46
2018-08-19T21:22:36.921Z,71.61
2018-08-19T21:25:05.845Z,71.67
2018-08-19T21:27:34.497Z,71.79
2018-08-19T21:30:05.086Z,72.34
2018-08-19T21:32:33.814Z,72.08
2018-08-19T21:35:02.551Z,72.28
2018-08-19T21:37:39.335Z,72.25
2018-08-19T21:40:08.350Z,72.03
2018-08-19T21:42:49.682Z,72.79
2018-08-19T21:45:18.516Z,73.64
2018-08-19T21:47:47.430Z,73.11
2018-08-19T21:50:16.867Z,73.27
2018-08-19T21:52:58.676Z,72.97
2018-08-19T21:56:02.419Z,73.04
2018-08-19T21:58:31.044Z,73.99
2018-08-19T22:01:02.159Z,74.44
2018-08-19T22:03:36.147Z,74.69
2018-08-19T22:06:06.351Z,74.79
2018-08-19T22:08:35.130Z,74.81
2018-08-19T22:11:04.230Z,75.35
2018-08-19T22:13:33.652Z,75.20
2018-08-19T22:16:02.312Z,75.41
2018-08-19T22:18:32.072Z,74.96
2018-08-19T22:21:23.251Z,75.53
2018-08-19T22:23:56.570Z,74.99
2018-08-19T22:26:25.201Z,74.74
2018-08-19T22:29:10.323Z,75.20
2018-08-19T22:31:38.994Z,75.27
2018-08-19T22:34:07.895Z,75.00
2018-08-19T22:36:38.125Z,75.71
2018-08-19T22:39:10.985Z,74.06
2018-08-19T22:41:40.074Z,74.95
2018-08-19T22:44:08.886Z,75.15
2018-08-19T22:46:37.636Z,74.43
2018-08-19T22:49:06.454Z,74.82
2018-08-19T22:51:35.461Z,75.26
2018-08-19T22:54:04.109Z,75.97
2018-08-19T22:56:33.105Z,76.07
2018-08-19T22:59:02.040Z,75.80
2018-08-19T23:01:35.827Z,76.37
2018-08-19T23:04:04.755Z,76.42
2018-08-19T23:06:35.009Z,76.46
2018-08-19T23:09:05.841Z,76.67
2018-08-19T23:11:40.139Z,76.86
2018-08-19T23:14:20.779Z,77.11
2018-08-19T23:16:50.365Z,77.82
2018-08-19T23:19:20.152Z,77.63
2018-08-19T23:21:48.895Z,78.12
2018-08-19T23:24:17.706Z,78.33
2018-08-19T23:26:46.920Z,78.60
2018-08-19T23:29:16.477Z,78.62
2018-08-19T23:31:45.786Z,78.42
2018-08-19T23:34:14.966Z,78.48
2018-08-19T23:36:44.930Z,78.84
2018-08-19T23:39:13.569Z,78.68
2018-08-19T23:41:43.191Z,79.52
2018-08-19T23:44:13.414Z,79.19
2018-08-19T23:46:42.952Z,79.70
2018-08-19T23:49:12.066Z,79.95
2018-08-19T23:51:40.826Z,80.07
2018-08-19T23:54:09.555Z,80.46
2018-08-19T23:56:40.155Z,80.62
2018-08-19T23:59:09.041Z,80.31
